Pagrindinis puslapis
METAR-TAF:

METAR-TAF

Oro uostai :

Langkavis, Malaizija

platuma: 06-20N, ilguma: 099-44E, Aukštis: 8 m

Dabartinis oras

Ataskaita buvo paskelbta 1 valandą ir 16 minutes, ne 19:00 UTC
Vėjas 3 kt nuo kintamojo kryptimis
Temperatūra 27°C
Drėgmė 84%
Slėgis 1009 hPa
Matomumas 10 km arba daugiau
Mažai debesys ne aukštis 2600 ft

METAR: WMKL 251900Z VRB03KT 9999 FEW026 27/24 Q1009

Laikas: 04:16 (20:16 UTC)

Prognozė

Ataskaita buvo paskelbta 3 valandos ir 16 minutes, ne 17:00 UTC
Prognozė galioja nuo 25 metu 18 UTC su 26 metu 18 UTC
Vėjas 6 kt iš Šiaurės Rytų
Matomumas 10 km arba daugiau
Mažai debesys ne aukštis 2600 ft
Tikimybė 30% :
Laikinai
nuo 25 metu 20 UTC su 26 metu 00 UTC
Matomumas: 7000 m
Išsisklaidę debesys ne aukštis 2000 ft
lietus
Laikinai
nuo 26 metu 08 UTC su 26 metu 12 UTC
Matomumas: 6000 m
Mažai debesys ne aukštis 1000 ft
Mažai debesys ne aukštis 1700 ft, Liūtiniai kamuoliniai debesys.
perkūnija, lietus

TAF: WMKL 251700Z 2518/2618 05006KT 9999 FEW026 PROB30 TEMPO 2520/2600 7000 -RA SCT020 TEMPO 2608/2612 6000 -TSRA FEW010 FEW017CB

Orai ataskaitas ir orų prognozės (METAR, TAF).

turimą stotys yra geltonos ir raudonos taškus žemėlapyje.

Perkelti pele per norėdami pamatyti stoties vardą.

Tada spustelėkite, norėdami matyti oro stebėjimo ir prognozės.

Norėdami pakeisti žemėlapį: spustelėkite ant žalios mygtukų su juodo kryžiaus žemyn,; žalią mygtuką su brūkšneliu, jei norite nutolinti; arba žalių rodyklių gretimoms žemėlapius.


METAR-TAF: